createdAt,value
2018-09-10T00:01:58.807Z,99.90
2018-09-10T00:04:27.395Z,99.90
2018-09-10T00:06:56.043Z,99.90
2018-09-10T00:09:25.175Z,99.90
2018-09-10T00:11:53.692Z,99.90
2018-09-10T00:14:22.208Z,99.90
2018-09-10T00:16:50.781Z,99.90
2018-09-10T00:19:19.985Z,99.90
2018-09-10T00:21:48.483Z,99.90
2018-09-10T00:24:17.128Z,99.90
2018-09-10T00:26:46.087Z,99.90
2018-09-10T00:29:14.630Z,99.90
2018-09-10T00:31:43.206Z,99.90
2018-09-10T00:34:11.711Z,99.90
2018-09-10T00:36:41.041Z,99.90
2018-09-10T00:39:11.816Z,99.90
2018-09-10T00:41:40.616Z,99.90
2018-09-10T00:44:09.250Z,99.90
2018-09-10T00:46:38.101Z,99.90
2018-09-10T00:49:06.816Z,99.90
2018-09-10T00:51:35.390Z,99.90
2018-09-10T00:54:04.065Z,99.90
2018-09-10T00:56:33.164Z,99.90
2018-09-10T00:59:01.748Z,99.90
2018-09-10T01:01:30.287Z,99.90
2018-09-10T01:03:58.828Z,99.90
2018-09-10T01:06:27.367Z,99.90
2018-09-10T01:08:55.884Z,99.90
2018-09-10T01:11:25.054Z,99.90
2018-09-10T01:13:53.653Z,99.90
2018-09-10T01:16:22.355Z,99.90
2018-09-10T01:18:50.975Z,99.90
2018-09-10T01:21:20.224Z,99.90
2018-09-10T01:23:48.760Z,99.90
2018-09-10T01:26:17.408Z,99.90
2018-09-10T01:28:45.999Z,99.90
2018-09-10T01:31:14.761Z,99.90
2018-09-10T01:33:49.448Z,99.90
2018-09-10T01:36:18.053Z,99.90
2018-09-10T01:38:47.180Z,99.90
2018-09-10T01:41:15.813Z,99.90
2018-09-10T01:43:45.073Z,99.90
2018-09-10T01:46:14.249Z,99.90
2018-09-10T01:48:42.925Z,99.90
2018-09-10T01:51:11.742Z,99.90
2018-09-10T01:53:40.907Z,99.90
2018-09-10T01:56:09.915Z,99.90
2018-09-10T01:58:38.488Z,99.90
2018-09-10T02:01:07.072Z,99.90
2018-09-10T02:03:35.611Z,99.90
2018-09-10T02:06:04.117Z,99.90
2018-09-10T02:08:33.421Z,99.90
2018-09-10T02:11:08.716Z,99.90
2018-09-10T02:13:37.955Z,99.90
2018-09-10T02:16:11.052Z,99.90
2018-09-10T02:18:40.226Z,99.90
2018-09-10T02:21:08.997Z,99.90
2018-09-10T02:23:37.547Z,99.90
2018-09-10T02:26:06.680Z,99.90
2018-09-10T02:28:36.067Z,99.90
2018-09-10T02:31:05.233Z,99.90
2018-09-10T02:33:33.716Z,99.90
2018-09-10T02:36:02.323Z,99.90
2018-09-10T02:38:31.549Z,99.90
2018-09-10T02:41:00.231Z,99.90
2018-09-10T02:43:28.736Z,99.90
2018-09-10T02:45:57.317Z,99.90
2018-09-10T02:48:25.793Z,99.90
2018-09-10T02:50:55.120Z,99.90
2018-09-10T02:53:24.331Z,99.90
2018-09-10T02:55:53.489Z,99.90
2018-09-10T02:58:22.469Z,99.90
2018-09-10T03:00:51.276Z,99.90
2018-09-10T03:03:20.366Z,99.90
2018-09-10T03:05:49.436Z,99.90
2018-09-10T03:08:18.046Z,99.90
2018-09-10T03:10:46.663Z,99.90
2018-09-10T03:13:15.559Z,99.90
2018-09-10T03:15:44.226Z,99.90
2018-09-10T03:18:13.712Z,99.90
2018-09-10T03:20:43.020Z,99.90
2018-09-10T03:23:12.310Z,99.90
2018-09-10T03:25:41.031Z,99.90
2018-09-10T03:28:09.553Z,99.90
2018-09-10T03:30:38.822Z,99.90
2018-09-10T03:33:08.067Z,99.90
2018-09-10T03:35:36.556Z,99.90
2018-09-10T03:38:05.141Z,99.90
2018-09-10T03:40:33.601Z,99.90
2018-09-10T03:43:02.995Z,99.90
2018-09-10T03:45:31.455Z,99.90
2018-09-10T03:48:00.009Z,99.90
2018-09-10T03:50:28.601Z,99.90
2018-09-10T03:52:57.620Z,99.90
2018-09-10T03:55:26.186Z,99.90
2018-09-10T03:57:55.424Z,99.90
2018-09-10T04:00:24.009Z,99.90
2018-09-10T04:02:52.787Z,99.90
2018-09-10T04:05:21.958Z,99.90
2018-09-10T04:07:51.322Z,99.90
2018-09-10T04:10:19.871Z,99.90
2018-09-10T04:12:48.610Z,99.90
2018-09-10T04:15:17.382Z,99.90
2018-09-10T04:17:46.205Z,99.90
2018-09-10T04:20:15.496Z,99.90
2018-09-10T04:22:44.175Z,99.90
2018-09-10T04:25:13.889Z,99.90
2018-09-10T04:27:42.998Z,99.90
2018-09-10T04:30:14.499Z,99.90
2018-09-10T04:32:43.671Z,99.90
2018-09-10T04:35:12.796Z,99.90
2018-09-10T04:37:41.903Z,99.90
2018-09-10T04:40:10.855Z,99.90
2018-09-10T04:42:40.302Z,99.90
2018-09-10T04:45:08.988Z,99.90
2018-09-10T04:47:37.686Z,99.90
2018-09-10T04:50:06.738Z,99.90
2018-09-10T04:52:35.290Z,99.90
2018-09-10T04:55:04.123Z,99.90
2018-09-10T04:57:33.309Z,99.90
2018-09-10T05:00:01.954Z,99.90
2018-09-10T05:02:31.265Z,99.90
2018-09-10T05:05:05.852Z,99.90
2018-09-10T05:07:35.572Z,99.90
2018-09-10T05:10:04.440Z,99.90
2018-09-10T05:12:33.891Z,99.90
2018-09-10T05:15:02.595Z,99.90
2018-09-10T05:17:31.148Z,99.90
2018-09-10T05:19:59.690Z,99.90
2018-09-10T05:22:28.160Z,99.90
2018-09-10T05:24:57.063Z,99.90
2018-09-10T05:27:26.410Z,99.90
2018-09-10T05:29:54.939Z,99.90
2018-09-10T05:32:23.799Z,99.90
2018-09-10T05:34:53.109Z,99.90
2018-09-10T05:37:21.880Z,99.90
2018-09-10T05:39:50.583Z,99.90
2018-09-10T05:42:19.678Z,99.90
2018-09-10T05:44:48.303Z,99.90
2018-09-10T05:47:17.215Z,99.90
2018-09-10T05:49:46.667Z,99.90
2018-09-10T05:52:15.852Z,99.90
2018-09-10T05:54:45.029Z,99.90
2018-09-10T05:57:14.216Z,99.90
2018-09-10T05:59:43.019Z,99.90
2018-09-10T06:02:11.827Z,99.90
2018-09-10T06:04:40.496Z,99.90
2018-09-10T06:07:09.149Z,99.90
2018-09-10T06:09:37.767Z,99.90
2018-09-10T06:12:06.356Z,99.90
2018-09-10T06:14:35.227Z,99.90
2018-09-10T06:17:03.977Z,99.90
2018-09-10T06:19:32.492Z,99.90
2018-09-10T06:22:01.079Z,99.90
2018-09-10T06:24:29.571Z,99.90
2018-09-10T06:26:58.692Z,99.90
2018-09-10T06:29:27.253Z,99.90
2018-09-10T06:31:56.532Z,99.90
2018-09-10T06:34:25.267Z,99.90
2018-09-10T06:36:53.910Z,99.90
2018-09-10T06:39:22.529Z,99.90
2018-09-10T06:41:51.474Z,99.90
2018-09-10T06:44:20.675Z,99.90
2018-09-10T06:46:49.291Z,99.90
2018-09-10T06:49:17.993Z,99.90
2018-09-10T06:51:46.546Z,99.90
2018-09-10T06:54:15.216Z,99.90
2018-09-10T06:56:43.697Z,99.90
2018-09-10T06:59:12.278Z,99.90
2018-09-10T07:01:41.272Z,99.90
2018-09-10T07:04:10.446Z,99.90
2018-09-10T07:06:39.710Z,99.90
2018-09-10T07:09:09.586Z,99.90
2018-09-10T07:11:39.038Z,99.90
2018-09-10T07:14:08.461Z,99.90
2018-09-10T07:16:37.496Z,99.90
2018-09-10T07:19:06.679Z,99.90
2018-09-10T07:21:36.041Z,99.90
2018-09-10T07:24:05.151Z,99.90
2018-09-10T07:26:34.639Z,99.90
2018-09-10T07:29:03.641Z,99.90
2018-09-10T07:31:32.230Z,99.90
2018-09-10T07:34:01.076Z,99.90
2018-09-10T07:36:30.520Z,99.90
2018-09-10T07:38:59.428Z,99.90
2018-09-10T07:41:28.110Z,99.90
2018-09-10T07:43:57.009Z,99.90
2018-09-10T07:46:26.444Z,99.90
2018-09-10T07:48:55.492Z,99.90
2018-09-10T07:51:24.448Z,99.90
2018-09-10T07:53:53.275Z,99.90
2018-09-10T07:56:22.089Z,99.90
2018-09-10T07:58:51.369Z,99.90
2018-09-10T08:01:20.529Z,99.90
2018-09-10T08:03:49.338Z,99.90
2018-09-10T08:06:18.114Z,99.90
2018-09-10T08:08:47.311Z,99.90
2018-09-10T08:11:16.566Z,99.90
2018-09-10T08:13:46.071Z,99.90
2018-09-10T08:16:14.984Z,99.90
2018-09-10T08:18:44.627Z,99.90
2018-09-10T08:21:13.984Z,99.90
2018-09-10T08:23:42.667Z,99.90
2018-09-10T08:26:11.765Z,99.90
2018-09-10T08:28:41.193Z,99.90
2018-09-10T08:31:10.288Z,99.90
2018-09-10T08:33:39.542Z,99.90
2018-09-10T08:36:08.395Z,99.90
2018-09-10T08:38:37.545Z,99.90
2018-09-10T08:41:06.272Z,99.90
2018-09-10T08:43:34.968Z,99.90
2018-09-10T08:46:04.417Z,99.90
2018-09-10T08:48:33.153Z,99.90
2018-09-10T08:51:02.042Z,99.90
2018-09-10T08:53:30.600Z,99.90
2018-09-10T08:55:59.429Z,99.90
2018-09-10T08:58:27.932Z,99.90
2018-09-10T09:00:57.067Z,99.90
2018-09-10T09:03:25.571Z,99.90
2018-09-10T09:05:54.507Z,99.90
2018-09-10T09:08:23.850Z,99.90
2018-09-10T09:10:53.121Z,99.90
2018-09-10T09:13:22.391Z,99.90
2018-09-10T09:15:51.258Z,99.90
2018-09-10T09:18:19.872Z,99.90
2018-09-10T09:20:48.777Z,99.90
2018-09-10T09:23:17.584Z,99.90
2018-09-10T09:25:45.938Z,99.90
2018-09-10T09:28:14.463Z,99.90
2018-09-10T09:30:43.148Z,99.90
2018-09-10T09:33:11.887Z,99.90
2018-09-10T09:35:47.168Z,99.90
2018-09-10T09:38:20.784Z,99.90
2018-09-10T09:40:54.592Z,99.90
2018-09-10T09:43:28.683Z,99.90
2018-09-10T09:46:02.445Z,99.90
2018-09-10T09:48:30.944Z,99.90
2018-09-10T09:51:00.078Z,99.90
2018-09-10T09:53:28.568Z,99.90
2018-09-10T09:55:57.119Z,99.90
2018-09-10T09:58:25.725Z,92.60
2018-09-10T10:00:57.214Z,88.60
2018-09-10T10:03:31.050Z,89.60
2018-09-10T10:06:00.259Z,87.70
2018-09-10T10:08:28.819Z,73.00
2018-09-10T10:10:57.339Z,74.60
2018-09-10T10:13:25.944Z,69.20
2018-09-10T10:15:55.134Z,69.70
2018-09-10T10:18:24.357Z,69.00
2018-09-10T10:20:52.811Z,68.10
2018-09-10T10:23:21.509Z,67.10
2018-09-10T10:25:50.104Z,65.60
2018-09-10T10:28:18.736Z,63.20
2018-09-10T10:30:47.362Z,58.80
2018-09-10T10:33:15.943Z,65.30
2018-09-10T10:35:45.073Z,66.40
2018-09-10T10:38:13.738Z,65.10
2018-09-10T10:40:42.468Z,67.00
2018-09-10T10:43:11.150Z,63.20
2018-09-10T10:45:39.995Z,61.00
2018-09-10T10:48:08.548Z,60.80
2018-09-10T10:50:37.148Z,60.70
2018-09-10T10:53:05.816Z,61.80
2018-09-10T10:55:34.513Z,64.60
2018-09-10T10:58:04.132Z,65.00
2018-09-10T11:00:32.648Z,60.30
2018-09-10T11:03:01.292Z,62.00
2018-09-10T11:05:29.856Z,62.50
2018-09-10T11:07:58.391Z,62.10
2018-09-10T11:10:27.030Z,64.50
2018-09-10T11:12:56.204Z,60.50
2018-09-10T11:15:24.865Z,59.10
2018-09-10T11:17:53.613Z,60.90
2018-09-10T11:20:22.257Z,58.80
2018-09-10T11:22:50.906Z,59.20
2018-09-10T11:25:19.728Z,57.50
2018-09-10T11:27:48.360Z,54.60
2018-09-10T11:30:16.952Z,55.20
2018-09-10T11:32:45.673Z,52.20
2018-09-10T11:35:14.304Z,53.70
2018-09-10T11:37:43.403Z,56.60
2018-09-10T11:40:12.390Z,53.30
2018-09-10T11:42:41.396Z,53.70
2018-09-10T11:45:10.710Z,52.50
2018-09-10T11:47:40.205Z,53.80
2018-09-10T11:50:09.030Z,52.40
2018-09-10T11:52:38.312Z,50.40
2018-09-10T11:55:07.453Z,51.80
2018-09-10T11:57:36.859Z,50.70
2018-09-10T12:00:05.538Z,51.10
2018-09-10T12:02:34.157Z,52.10
2018-09-10T12:05:03.115Z,51.40
2018-09-10T12:07:31.898Z,50.60
2018-09-10T12:10:01.021Z,52.50
2018-09-10T12:12:30.024Z,52.00
2018-09-10T12:14:58.979Z,50.70
2018-09-10T12:17:27.830Z,48.20
2018-09-10T12:19:56.498Z,51.50
2018-09-10T12:22:25.216Z,49.50
2018-09-10T12:24:53.827Z,46.70
2018-09-10T12:27:22.475Z,47.20
2018-09-10T12:29:51.087Z,50.20
2018-09-10T12:32:19.714Z,49.10
2018-09-10T12:34:48.187Z,49.40
2018-09-10T12:37:16.754Z,46.90
2018-09-10T12:39:46.011Z,51.40
2018-09-10T12:42:16.161Z,47.90
2018-09-10T12:44:44.985Z,48.90
2018-09-10T12:47:15.141Z,52.10
2018-09-10T12:49:44.024Z,49.60
2018-09-10T12:52:12.535Z,51.80
2018-09-10T12:54:41.481Z,51.90
2018-09-10T12:57:10.327Z,50.60
2018-09-10T12:59:39.139Z,47.90
2018-09-10T13:02:08.020Z,46.80
2018-09-10T13:04:36.916Z,44.90
2018-09-10T13:07:06.203Z,48.00
2018-09-10T13:09:35.386Z,47.00
2018-09-10T13:12:04.644Z,43.90
2018-09-10T13:14:33.479Z,44.60
2018-09-10T13:17:02.195Z,45.80
2018-09-10T13:19:31.060Z,43.90
2018-09-10T13:22:00.614Z,44.80
2018-09-10T13:24:29.740Z,44.90
2018-09-10T13:26:58.493Z,43.20
2018-09-10T13:29:28.132Z,42.80
2018-09-10T13:31:56.724Z,44.60
2018-09-10T13:34:25.300Z,44.30
2018-09-10T13:36:53.915Z,48.00
2018-09-10T13:39:22.728Z,46.40
2018-09-10T13:41:51.462Z,49.30
2018-09-10T13:44:20.285Z,45.10
2018-09-10T13:46:49.062Z,44.80
2018-09-10T13:49:17.782Z,47.00
2018-09-10T13:51:46.382Z,47.90
2018-09-10T13:54:15.364Z,46.10
2018-09-10T13:56:44.719Z,45.40
2018-09-10T13:59:13.336Z,43.50
2018-09-10T14:01:42.155Z,47.60
2018-09-10T14:04:10.776Z,43.70
2018-09-10T14:06:39.468Z,44.90
2018-09-10T14:09:08.573Z,44.10
2018-09-10T14:11:38.439Z,43.70
2018-09-10T14:14:07.907Z,41.60
2018-09-10T14:16:36.658Z,41.40
2018-09-10T14:19:05.889Z,42.30
2018-09-10T14:21:34.817Z,43.30
2018-09-10T14:24:03.654Z,43.70
2018-09-10T14:26:32.589Z,42.40
2018-09-10T14:29:01.670Z,41.10
2018-09-10T14:31:31.613Z,40.40
2018-09-10T14:34:00.200Z,39.80
2018-09-10T14:36:29.438Z,39.10
2018-09-10T14:38:58.216Z,40.00
2018-09-10T14:41:27.764Z,39.90
2018-09-10T14:43:56.404Z,40.60
2018-09-10T14:46:25.393Z,41.40
2018-09-10T14:48:54.493Z,40.70
2018-09-10T14:51:23.108Z,40.80
2018-09-10T14:53:52.453Z,40.80
2018-09-10T14:56:21.204Z,39.70
2018-09-10T14:58:50.318Z,42.70
2018-09-10T15:01:18.972Z,41.50
2018-09-10T15:03:47.889Z,40.00
2018-09-10T15:06:16.800Z,39.60
2018-09-10T15:08:45.375Z,40.90
2018-09-10T15:11:14.128Z,39.20
2018-09-10T15:13:42.783Z,39.30
2018-09-10T15:16:11.390Z,38.20
2018-09-10T15:18:40.242Z,38.90
2018-09-10T15:21:09.451Z,38.10
2018-09-10T15:23:38.606Z,38.50
2018-09-10T15:26:08.217Z,36.40
2018-09-10T15:28:37.236Z,36.10
2018-09-10T15:31:06.488Z,36.60
2018-09-10T15:33:36.008Z,36.10
2018-09-10T15:36:05.281Z,36.60
2018-09-10T15:38:34.048Z,33.60
2018-09-10T15:41:04.340Z,33.20
2018-09-10T15:43:33.373Z,32.30
2018-09-10T15:46:02.875Z,33.40
2018-09-10T15:48:32.210Z,33.20
2018-09-10T15:51:01.290Z,31.30
2018-09-10T15:53:30.461Z,30.10
2018-09-10T15:55:59.263Z,30.70
2018-09-10T15:58:29.090Z,30.00
2018-09-10T16:00:58.075Z,32.10
2018-09-10T16:03:27.666Z,33.00
2018-09-10T16:05:56.501Z,29.80
2018-09-10T16:08:25.486Z,30.90
2018-09-10T16:10:54.243Z,29.70
2018-09-10T16:13:23.289Z,33.20
2018-09-10T16:15:52.487Z,32.40
2018-09-10T16:18:23.731Z,33.40
2018-09-10T16:20:53.817Z,31.30
2018-09-10T16:23:23.746Z,34.00
2018-09-10T16:25:53.346Z,34.40
2018-09-10T16:28:22.559Z,36.50
2018-09-10T16:30:51.685Z,38.30
2018-09-10T16:33:21.089Z,41.10
2018-09-10T16:35:53.191Z,38.30
2018-09-10T16:38:22.597Z,44.20
2018-09-10T16:40:51.985Z,45.30
2018-09-10T16:43:21.084Z,43.10
2018-09-10T16:45:50.128Z,47.30
2018-09-10T16:48:19.392Z,50.30
2018-09-10T16:50:48.379Z,52.00
2018-09-10T16:53:17.662Z,53.80
2018-09-10T16:55:46.766Z,55.10
2018-09-10T16:58:16.881Z,57.10
2018-09-10T17:00:45.897Z,61.10
2018-09-10T17:03:16.077Z,63.90
2018-09-10T17:05:46.026Z,65.50
2018-09-10T17:08:15.301Z,69.30
2018-09-10T17:10:45.092Z,73.20
2018-09-10T17:13:15.313Z,77.30
2018-09-10T17:15:45.883Z,83.40
2018-09-10T17:18:15.947Z,89.20
2018-09-10T17:20:45.926Z,92.90
2018-09-10T17:23:15.017Z,96.70
2018-09-10T17:25:45.383Z,99.90
2018-09-10T17:28:14.732Z,99.90
2018-09-10T17:30:43.792Z,99.90
2018-09-10T17:33:13.090Z,99.90
2018-09-10T17:35:41.961Z,99.90
2018-09-10T17:38:12.109Z,99.90
2018-09-10T17:40:42.016Z,99.90
2018-09-10T17:43:11.800Z,99.90
2018-09-10T17:45:40.660Z,99.90
2018-09-10T17:48:10.474Z,99.90
2018-09-10T17:50:39.446Z,99.90
2018-09-10T17:53:08.944Z,99.90
2018-09-10T17:55:38.002Z,99.90
2018-09-10T17:58:07.020Z,99.90
2018-09-10T18:00:40.309Z,99.90
2018-09-10T18:03:12.242Z,99.90
2018-09-10T18:05:41.823Z,99.90
2018-09-10T18:08:11.260Z,99.90
2018-09-10T18:10:40.115Z,99.90
2018-09-10T18:13:09.447Z,99.90
2018-09-10T18:15:38.427Z,99.90
2018-09-10T18:18:07.833Z,99.90
2018-09-10T18:20:37.124Z,99.90
2018-09-10T18:23:06.033Z,99.90
2018-09-10T18:25:36.040Z,99.90
2018-09-10T18:28:05.486Z,99.90
2018-09-10T18:30:35.780Z,99.90
2018-09-10T18:33:04.918Z,99.90
2018-09-10T18:35:33.913Z,99.90
2018-09-10T18:38:04.831Z,99.90
2018-09-10T18:40:34.656Z,99.90
2018-09-10T18:43:03.785Z,99.90
2018-09-10T18:45:32.481Z,99.90
2018-09-10T18:48:01.331Z,99.90
2018-09-10T18:50:30.550Z,99.90
2018-09-10T18:52:59.773Z,99.90
2018-09-10T18:55:28.919Z,99.90
2018-09-10T18:57:57.831Z,99.90
2018-09-10T19:00:27.643Z,99.90
2018-09-10T19:02:56.454Z,99.90
2018-09-10T19:05:26.246Z,99.90
2018-09-10T19:07:55.147Z,99.90
2018-09-10T19:10:24.382Z,99.90
2018-09-10T19:12:53.539Z,99.90
2018-09-10T19:15:22.498Z,99.90
2018-09-10T19:17:52.161Z,99.90
2018-09-10T19:20:21.579Z,99.90
2018-09-10T19:22:50.534Z,99.90
2018-09-10T19:25:20.229Z,99.90
2018-09-10T19:27:49.753Z,99.90
2018-09-10T19:30:19.390Z,99.90
2018-09-10T19:32:48.277Z,99.90
2018-09-10T19:35:17.418Z,99.90
2018-09-10T19:37:46.524Z,99.90
2018-09-10T19:40:15.900Z,99.90
2018-09-10T19:42:44.729Z,99.90
2018-09-10T19:45:14.167Z,99.90
2018-09-10T19:47:43.681Z,99.90
2018-09-10T19:50:12.456Z,99.90
2018-09-10T19:52:41.624Z,99.90
2018-09-10T19:55:11.346Z,99.90
2018-09-10T19:57:40.114Z,99.90
2018-09-10T20:00:09.884Z,99.90
2018-09-10T20:02:39.675Z,99.90
2018-09-10T20:05:10.100Z,99.90
2018-09-10T20:07:39.361Z,99.90
2018-09-10T20:10:08.770Z,99.90
2018-09-10T20:12:37.913Z,99.90
2018-09-10T20:15:06.672Z,99.90
2018-09-10T20:17:35.634Z,99.90
2018-09-10T20:20:05.792Z,99.90
2018-09-10T20:22:34.673Z,99.90
2018-09-10T20:25:05.362Z,99.90
2018-09-10T20:27:34.888Z,99.90
2018-09-10T20:30:05.129Z,99.90
2018-09-10T20:32:34.056Z,99.90
2018-09-10T20:35:03.805Z,99.90
2018-09-10T20:37:32.608Z,99.90
2018-09-10T20:40:01.475Z,99.90
2018-09-10T20:42:30.422Z,99.90
2018-09-10T20:45:00.089Z,99.90
2018-09-10T20:47:29.230Z,99.90
2018-09-10T20:49:58.043Z,99.90
2018-09-10T20:52:26.669Z,99.90
2018-09-10T20:54:55.485Z,99.90
2018-09-10T20:57:24.494Z,99.90
2018-09-10T20:59:53.676Z,99.90
2018-09-10T21:02:23.149Z,99.90
2018-09-10T21:04:52.470Z,99.90
2018-09-10T21:07:21.975Z,99.90
2018-09-10T21:09:51.009Z,99.90
2018-09-10T21:12:20.190Z,99.90
2018-09-10T21:14:49.550Z,99.90
2018-09-10T21:17:18.598Z,99.90
2018-09-10T21:19:47.924Z,99.90
2018-09-10T21:22:17.096Z,99.90
2018-09-10T21:24:45.723Z,99.90
2018-09-10T21:27:14.509Z,99.90
2018-09-10T21:29:43.495Z,99.90
2018-09-10T21:32:12.613Z,99.90
2018-09-10T21:34:41.512Z,99.90
2018-09-10T21:37:10.327Z,99.90
2018-09-10T21:39:38.978Z,99.90
2018-09-10T21:42:08.749Z,99.90
2018-09-10T21:44:38.374Z,99.90
2018-09-10T21:47:07.206Z,99.90
2018-09-10T21:49:36.658Z,99.90
2018-09-10T21:52:05.660Z,99.90
2018-09-10T21:54:34.440Z,99.90
2018-09-10T21:57:03.188Z,99.90
2018-09-10T21:59:32.462Z,99.90
2018-09-10T22:02:01.283Z,99.90
2018-09-10T22:04:30.449Z,99.90
2018-09-10T22:07:00.058Z,99.90
2018-09-10T22:09:28.640Z,99.90
2018-09-10T22:12:03.052Z,99.90
2018-09-10T22:14:32.544Z,99.90
2018-09-10T22:17:10.776Z,99.90
2018-09-10T22:19:39.877Z,99.90
2018-09-10T22:22:08.468Z,99.90
2018-09-10T22:24:37.334Z,99.90
2018-09-10T22:27:06.614Z,99.90
2018-09-10T22:29:35.506Z,99.90
2018-09-10T22:32:04.066Z,99.90
2018-09-10T22:34:32.979Z,99.90
2018-09-10T22:37:01.881Z,99.90
2018-09-10T22:39:30.665Z,99.90
2018-09-10T22:41:59.571Z,99.90
2018-09-10T22:44:29.072Z,99.90
2018-09-10T22:46:58.404Z,99.90
2018-09-10T22:49:27.816Z,99.90
2018-09-10T22:51:56.773Z,99.90
2018-09-10T22:54:26.171Z,99.90
2018-09-10T22:56:54.848Z,99.90
2018-09-10T22:59:23.735Z,99.90
2018-09-10T23:01:52.247Z,99.90
2018-09-10T23:04:20.857Z,99.90
2018-09-10T23:06:49.448Z,99.90
2018-09-10T23:09:18.177Z,99.90
2018-09-10T23:11:47.802Z,99.90
2018-09-10T23:14:17.200Z,99.90
2018-09-10T23:16:46.244Z,99.90
2018-09-10T23:19:15.292Z,99.90
2018-09-10T23:21:44.678Z,99.90
2018-09-10T23:24:13.782Z,99.90
2018-09-10T23:26:42.418Z,99.90
2018-09-10T23:29:10.984Z,99.90
2018-09-10T23:31:41.153Z,99.90
2018-09-10T23:34:09.923Z,99.90
2018-09-10T23:36:38.566Z,99.90
2018-09-10T23:39:09.016Z,99.90
2018-09-10T23:41:39.661Z,99.90
2018-09-10T23:44:08.324Z,99.90
2018-09-10T23:46:37.096Z,99.90
2018-09-10T23:49:05.961Z,99.90
2018-09-10T23:51:35.500Z,99.90
2018-09-10T23:54:04.274Z,99.90
2018-09-10T23:56:33.691Z,99.90
2018-09-10T23:59:02.860Z,99.90
